createdAt,value
2023-02-13T00:01:51.857Z,22.07
2023-02-13T00:07:57.348Z,18.00
2023-02-13T00:14:02.064Z,22.23
2023-02-13T00:20:06.771Z,23.43
2023-02-13T00:26:11.904Z,15.83
2023-02-13T00:32:18.811Z,16.77
2023-02-13T00:38:23.341Z,10.57
2023-02-13T00:44:27.954Z,7.90
2023-02-13T00:50:32.554Z,7.00
2023-02-13T00:56:37.088Z,6.90
2023-02-13T01:02:41.604Z,5.20
2023-02-13T01:08:46.218Z,3.20
2023-02-13T01:14:50.826Z,3.73
2023-02-13T01:20:56.129Z,4.83
2023-02-13T01:27:02.484Z,5.27
2023-02-13T01:33:07.331Z,2.80
2023-02-13T01:39:11.860Z,2.77
2023-02-13T01:45:54.122Z,2.97
2023-02-13T01:52:05.325Z,4.10
2023-02-13T01:58:22.512Z,3.07
2023-02-13T02:04:37.653Z,5.67
2023-02-13T02:10:44.555Z,4.10
2023-02-13T02:16:50.319Z,4.00
2023-02-13T02:23:03.930Z,4.87
2023-02-13T02:29:46.967Z,4.53
2023-02-13T02:35:54.445Z,6.57
2023-02-13T02:42:34.889Z,5.70
2023-02-13T02:49:13.353Z,7.30
2023-02-13T02:55:28.401Z,9.23
2023-02-13T03:01:54.023Z,9.77
2023-02-13T03:08:02.284Z,9.00
2023-02-13T03:14:16.002Z,9.40
2023-02-13T03:20:45.197Z,13.40
2023-02-13T03:27:05.009Z,12.60
2023-02-13T03:33:27.187Z,10.90
2023-02-13T03:39:39.690Z,10.50
2023-02-13T03:45:54.360Z,16.20
2023-02-13T03:52:00.052Z,16.33
2023-02-13T03:58:23.203Z,10.47
2023-02-13T04:04:35.029Z,12.97
2023-02-13T04:10:42.742Z,10.80
2023-02-13T04:16:58.396Z,16.37
2023-02-13T04:23:04.688Z,15.63
2023-02-13T04:29:09.649Z,24.83
2023-02-13T04:35:14.703Z,17.43
2023-02-13T04:41:20.105Z,11.30
2023-02-13T04:47:24.621Z,13.57
2023-02-13T04:53:29.192Z,11.70
2023-02-13T04:59:33.731Z,11.93
2023-02-13T05:05:38.274Z,9.93
2023-02-13T05:11:42.960Z,9.60
2023-02-13T05:17:47.473Z,10.30
2023-02-13T05:23:54.547Z,15.90
2023-02-13T05:29:59.108Z,11.70
2023-02-13T05:36:03.621Z,12.67
2023-02-13T05:42:08.939Z,10.17
2023-02-13T05:48:13.500Z,9.37
2023-02-13T05:54:18.022Z,11.63
2023-02-13T06:00:22.639Z,15.00
2023-02-13T06:06:37.279Z,10.30
2023-02-13T06:12:42.202Z,7.80
2023-02-13T06:18:46.763Z,7.03
2023-02-13T06:24:51.352Z,15.30
2023-02-13T06:30:56.558Z,11.97
2023-02-13T06:37:01.860Z,7.10
2023-02-13T06:43:06.382Z,6.80
2023-02-13T06:49:11.287Z,6.90
2023-02-13T06:55:15.867Z,7.50
2023-02-13T07:01:21.863Z,7.10
2023-02-13T07:07:26.468Z,9.23
2023-02-13T07:13:31.128Z,7.80
2023-02-13T07:19:35.720Z,7.40
2023-02-13T07:25:40.201Z,6.97
2023-02-13T07:31:44.971Z,6.80
2023-02-13T07:37:49.539Z,7.50
2023-02-13T07:43:54.112Z,10.90
2023-02-13T07:49:58.646Z,8.40
2023-02-13T07:56:03.164Z,7.60
2023-02-13T08:02:16.038Z,10.73
2023-02-13T08:08:21.119Z,12.40
2023-02-13T08:14:25.614Z,12.40
2023-02-13T08:20:30.422Z,9.57
2023-02-13T08:26:35.196Z,14.53
2023-02-13T08:32:53.592Z,8.07
2023-02-13T08:38:59.194Z,13.20
2023-02-13T08:45:03.770Z,7.77
2023-02-13T08:51:08.953Z,8.63
2023-02-13T08:57:14.055Z,8.37
2023-02-13T09:03:19.003Z,10.53
2023-02-13T09:09:23.606Z,8.10
2023-02-13T09:15:28.439Z,8.70
2023-02-13T09:21:32.964Z,12.13
2023-02-13T09:34:24.137Z,11.80
2023-02-13T09:40:28.733Z,13.27
2023-02-13T09:46:33.645Z,12.83
2023-02-13T09:52:38.343Z,12.30
2023-02-13T09:58:47.490Z,12.43
2023-02-13T10:05:21.055Z,13.73
2023-02-13T10:12:03.342Z,13.40
2023-02-13T10:18:15.232Z,11.97
2023-02-13T10:24:25.409Z,14.93
2023-02-13T10:30:47.087Z,14.90
2023-02-13T10:37:14.960Z,10.50
2023-02-13T10:43:49.172Z,14.57
2023-02-13T10:50:06.164Z,14.70
2023-02-13T10:56:37.444Z,16.20
2023-02-13T11:02:56.838Z,13.83
2023-02-13T11:09:02.559Z,14.10
2023-02-13T11:15:30.002Z,16.53
2023-02-13T11:21:40.174Z,13.20
2023-02-13T11:27:44.758Z,15.30
2023-02-13T11:34:00.905Z,17.33
2023-02-13T11:40:14.001Z,12.20
2023-02-13T11:46:26.925Z,18.97
2023-02-13T11:52:48.889Z,21.00
2023-02-13T11:59:20.257Z,19.63
2023-02-13T12:05:25.045Z,21.13
2023-02-13T12:11:31.908Z,17.30
2023-02-13T12:17:49.767Z,17.40
2023-02-13T12:24:17.049Z,23.47
2023-02-13T12:30:59.002Z,20.60
2023-02-13T12:37:22.626Z,16.87
2023-02-13T12:44:02.647Z,17.80
2023-02-13T12:50:35.104Z,18.60
2023-02-13T12:57:13.787Z,17.80
2023-02-13T13:03:27.180Z,23.20
2023-02-13T13:09:42.509Z,17.40
2023-02-13T13:16:16.936Z,17.13
2023-02-13T13:23:00.207Z,18.03
2023-02-13T13:29:07.939Z,17.10
2023-02-13T13:35:18.877Z,16.67
2023-02-13T13:41:32.409Z,19.10
2023-02-13T13:47:48.136Z,16.23
2023-02-13T13:54:11.403Z,17.13
2023-02-13T14:00:41.928Z,17.63
2023-02-13T14:07:06.630Z,22.47
2023-02-13T14:13:33.170Z,21.20
2023-02-13T14:19:37.849Z,20.97
2023-02-13T14:25:42.569Z,18.97
2023-02-13T14:31:47.288Z,21.80
2023-02-13T14:38:10.536Z,20.90
2023-02-13T14:44:49.778Z,18.57
2023-02-13T14:50:56.838Z,23.37
2023-02-13T14:57:18.566Z,24.67
2023-02-13T15:03:31.027Z,25.53
2023-02-13T15:09:39.748Z,22.10
2023-02-13T15:15:44.315Z,20.83
2023-02-13T15:21:49.655Z,19.10
2023-02-13T15:28:05.793Z,20.90
2023-02-13T15:34:22.432Z,19.37
2023-02-13T15:40:32.301Z,26.97
2023-02-13T15:46:38.576Z,19.07
2023-02-13T15:52:43.193Z,22.10
2023-02-13T15:58:48.083Z,23.13
2023-02-13T16:05:06.594Z,19.13
2023-02-13T16:11:18.734Z,22.53
2023-02-13T16:17:23.274Z,25.60
2023-02-13T16:23:47.586Z,24.77
2023-02-13T16:29:52.572Z,21.30
2023-02-13T16:35:57.935Z,23.60
2023-02-13T16:42:09.512Z,21.23
2023-02-13T16:48:26.822Z,22.70
2023-02-13T16:54:32.750Z,23.13
2023-02-13T17:00:55.983Z,19.57
2023-02-13T17:07:04.707Z,21.10
2023-02-13T17:13:17.566Z,18.80
2023-02-13T17:19:22.074Z,21.27
2023-02-13T17:25:26.645Z,18.30
2023-02-13T17:31:34.466Z,19.07
2023-02-13T17:37:39.086Z,23.70
2023-02-13T17:43:44.636Z,21.57
2023-02-13T17:49:49.848Z,21.73
2023-02-13T17:55:54.410Z,22.93
2023-02-13T18:01:59.310Z,24.00
2023-02-13T18:08:03.939Z,25.40
2023-02-13T18:14:08.654Z,24.23
2023-02-13T18:20:13.251Z,20.23
2023-02-13T18:26:17.766Z,24.67
2023-02-13T18:32:22.801Z,20.90
2023-02-13T18:38:27.318Z,23.13
2023-02-13T18:44:32.031Z,23.53
2023-02-13T18:50:36.734Z,20.03
2023-02-13T18:56:41.465Z,24.30
2023-02-13T19:02:47.704Z,24.20
2023-02-13T19:08:52.286Z,23.33
2023-02-13T19:15:01.732Z,25.13
2023-02-13T19:21:07.590Z,21.80
2023-02-13T19:27:15.082Z,22.40
2023-02-13T19:33:19.557Z,26.77
2023-02-13T19:39:24.161Z,27.00
2023-02-13T19:45:28.663Z,23.70
2023-02-13T19:51:33.385Z,42.03
2023-02-13T19:57:42.298Z,25.27
2023-02-13T20:03:46.933Z,28.50
2023-02-13T20:09:52.323Z,26.63
2023-02-13T20:15:59.949Z,26.47
2023-02-13T20:22:16.628Z,26.20
2023-02-13T20:28:21.166Z,25.70
2023-02-13T20:34:25.867Z,26.50
2023-02-13T20:40:31.270Z,22.50
2023-02-13T20:46:35.843Z,29.17
2023-02-13T20:52:40.715Z,29.20
2023-02-13T20:58:45.483Z,26.17
2023-02-13T21:04:50.945Z,31.60
2023-02-13T21:10:55.520Z,29.77
2023-02-13T21:17:14.647Z,31.15
2023-02-13T21:23:19.233Z,36.20
2023-02-13T21:29:24.294Z,26.47
2023-02-13T21:35:28.899Z,26.70
2023-02-13T21:41:33.695Z,28.67
2023-02-13T21:47:38.275Z,28.60
2023-02-13T21:53:42.822Z,29.20
2023-02-13T21:59:47.965Z,38.23
2023-02-13T22:05:52.485Z,27.93
2023-02-13T22:11:58.302Z,44.97
2023-02-13T22:18:03.553Z,32.47
2023-02-13T22:24:08.222Z,27.40
2023-02-13T22:30:15.601Z,27.10
2023-02-13T22:36:22.221Z,27.07
2023-02-13T22:42:29.021Z,27.27
2023-02-13T22:48:33.622Z,33.90
2023-02-13T22:54:39.281Z,29.13
2023-02-13T23:00:43.827Z,24.67
2023-02-13T23:06:48.383Z,29.03
2023-02-13T23:12:52.935Z,30.97
2023-02-13T23:18:57.445Z,27.23
2023-02-13T23:25:05.746Z,30.40
2023-02-13T23:31:11.593Z,31.43
2023-02-13T23:37:16.220Z,28.93
2023-02-13T23:43:20.748Z,31.30
2023-02-13T23:49:25.291Z,34.70
2023-02-13T23:55:29.859Z,32.23
